Ana Sayfa
METAR-TAF:

METAR-TAF

Havaalanları :

Fort Richardson, Alaska, Amerika Birleşik Devletleri

Enlem: 61-15-45N, Boylam: 149-39-17W, yükseklik: 115 m

Güncel hava durumu gözlemi

Rapor saat 05:55 UTC de 37 dakika önce yapıldı.
Rüzgar güney/güneybatıdan 9 kt
Sıcaklık 1°C
Nem 64%
Basınç 1001 hPa
Görüş mesafesi: 16.1 km
4400 ft yükseklikte çok bulutlu

METAR: PAFR 130555Z AUTO 21009KT 10SM OVC044 01/M05 A2957 RMK AO2 SLP022 60000 T00101053 10042 20005 52007 $

Saat: 22:32 (06:32 UTC)


TAF: eksik

4.000'den fazla havaalanı için hava durumu gözlemleri ve tahminleri (METAR ve TAF raporları).

Kullanılabilir istasyonlar harita üzerinde sarı ve kırmızı noktalarla gösterilir.

İstasyonun adını görmek için fareyi noktanın üzerinde gezdirin.

Sonrasında hava gözlem ve tahminlerini görmek için tıklayın.

Haritayı değiştirmek için: yaklaştırmak için siyah artı işaretli yeşil düğmeye ve uzaklaştırmak için de eksi işaretli düğmeye hızla tıklayın; bitişik haritalar için yeşil okları kullanın.


METAR-TAF: